Terminal Aerodrome Forecast
Issued by NWS

Home | Current Version | Previous Version | Graphics & Text | Print | Product List | Glossary Off
Versions: 1 2 3 4 5 6 7 8 9 10 11 12 13 14 15 16 17 18 19 20 21 22 23 24 25 26 27 28 29 30 31 32 33 34

000
FTUS43 KDDC 192300 RRA
TAFHYS
TAF
KHYS 192343Z 2000/2024 15014G18KT P6SM SCT200
     FM200200 16009KT P6SM SCT200
     FM201500 18016G22KT P6SM SKC
     FM201800 20020G27KT P6SM SKC=

USA.gov is the U.S. government's official web portal to all federal, state and local government web resources and services.